Wetterdaten: November 2009
Datum Temp Feuchte Luftdruck Regen Wind Richtung Sonnenschein UV Solar Windben
01.11.2009 6,6 C 93 % 1010,3 hPa 13,4 l/m 17,4 km/h S-SO 1,67 h 0,7 UV-I 118 W/m 24,1 km/h
02.11.2009 8,8 C 95 % 1001,0 hPa 14,6 l/m 1,5 km/h S 0,00 h 0,6 UV-I 60 W/m 4,8 km/h
03.11.2009 6,5 C 89 % 994,4 hPa 2,0 l/m 13,9 km/h S-SO 1,83 h 0,7 UV-I 120 W/m 20,9 km/h
04.11.2009 6,3 C 96 % 988,0 hPa 15,8 l/m 6,5 km/h S-SO 0,08 h 0,6 UV-I 41 W/m 13,3 km/h
05.11.2009 6,3 C 91 % 996,3 hPa 4,4 l/m 9,4 km/h S 0,00 h 0,6 UV-I 67 W/m 17,7 km/h
06.11.2009 6,8 C 93 % 1005,5 hPa 1,6 l/m 6,4 km/h S-SO 0,42 h 0,7 UV-I 79 W/m 11,7 km/h
07.11.2009 5,6 C 92 % 999,2 hPa 2,6 l/m 11,8 km/h S-SO 0,00 h 0,6 UV-I 44 W/m 20,1 km/h
08.11.2009 5,9 C 93 % 1007,9 hPa 0,0 l/m 2,6 km/h N-NO 0,08 h 0,7 UV-I 87 W/m 5,6 km/h
09.11.2009 4,4 C 98 % 1010,5 hPa 5,2 l/m 5,6 km/h N-NO 0,00 h 0,0 UV-I 19 W/m 10,9 km/h
10.11.2009 4,3 C 97 % 1008,2 hPa 22,0 l/m 3,3 km/h S-SW 0,00 h 0,0 UV-I 28 W/m 11,7 km/h
11.11.2009 5,6 C 93 % 1008,7 hPa 4,0 l/m 5,3 km/h S-SW 0,00 h 0,6 UV-I 54 W/m 12,9 km/h
12.11.2009 3,2 C 96 % 1009,1 hPa 1,0 l/m 2,4 km/h S 0,08 h 0,6 UV-I 48 W/m 5,2 km/h
13.11.2009 9,8 C 93 % 1010,3 hPa 1,2 l/m 13,6 km/h S-SO 0,83 h 0,6 UV-I 60 W/m 20,9 km/h
14.11.2009 9,4 C 90 % 1007,3 hPa 0,2 l/m 10,0 km/h S-SO 0,00 h 0,0 UV-I 29 W/m 15,7 km/h
15.11.2009 8,3 C 93 % 1011,6 hPa 6,2 l/m 2,9 km/h S 0,75 h 0,6 UV-I 67 W/m 6,8 km/h
16.11.2009 9,5 C 93 % 1008,6 hPa 0,8 l/m 8,6 km/h S 0,00 h 0,5 UV-I 33 W/m 16,1 km/h
17.11.2009 9,0 C 90 % 1011,7 hPa 1,0 l/m 6,9 km/h S-SW 0,08 h 0,5 UV-I 55 W/m 15,7 km/h
18.11.2009 9,3 C 83 % 1015,7 hPa 0,2 l/m 19,3 km/h S 1,33 h 0,6 UV-I 95 W/m 37,4 km/h
19.11.2009 7,3 C 85 % 1020,1 hPa 0,0 l/m 6,9 km/h S 1,25 h 0,7 UV-I 89 W/m 10,5 km/h
20.11.2009 12,8 C 73 % 1020,4 hPa 0,0 l/m 13,6 km/h S 3,83 h 0,6 UV-I 127 W/m 23,7 km/h
21.11.2009 11,4 C 85 % 1020,4 hPa 0,8 l/m 10,6 km/h S 1,33 h 0,6 UV-I 81 W/m 18,1 km/h
22.11.2009 8,7 C 84 % 1009,0 hPa 2,2 l/m 11,2 km/h S 0,67 h 0,5 UV-I 56 W/m 20,9 km/h
23.11.2009 8,7 C 88 % 999,7 hPa 23,0 l/m 22,9 km/h S 0,00 h 0,0 UV-I 32 W/m 37,0 km/h
24.11.2009 9,5 C 89 % 1009,6 hPa 5,4 l/m 12,5 km/h S-SW 0,08 h 0,5 UV-I 48 W/m 27,8 km/h
25.11.2009 9,7 C 83 % 1005,3 hPa 1,0 l/m 13,8 km/h S 2,08 h 0,6 UV-I 100 W/m 21,4 km/h
26.11.2009 7,5 C 79 % 1006,5 hPa 0,0 l/m 21,5 km/h S 2,92 h 0,6 UV-I 112 W/m 35,4 km/h
27.11.2009 5,9 C 86 % 1002,7 hPa 7,6 l/m 12,5 km/h S 0,08 h 0,0 UV-I 35 W/m 20,9 km/h
28.11.2009 6,5 C 89 % 1000,8 hPa 1,4 l/m 15,6 km/h S 0,33 h 0,0 UV-I 42 W/m 27,4 km/h
29.11.2009 8,0 C 82 % 997,3 hPa 1,6 l/m 15,1 km/h S 0,50 h 0,5 UV-I 67 W/m 24,1 km/h
30.11.2009 4,2 C 92 % 998,8 hPa 0,0 l/m 0,8 km/h S 0,00 h 0,0 UV-I 50 W/m 3,2 km/h
Min-Datum 12.11.09 20.11.09 04.11.09 25 Tage 02.11.09 - - - - 02.11.09
Min-Zeit 05:40 13:15 05:20 - 16:15 - - - - 16:15
Minimum -0,3 C 57 % 983,1 hPa - 0,0 km/h - - - - 0,0 km/h
Max-Datum 20.11.09 05.11.09 21.11.09 23.11.09 26.11.09 - 20.11.09 01.11.09 06.11.09 18.11.09
Max-Zeit 13:30 22:25 06:25 17:25 13:50 - 14:55 12:55 11:05 15:55
Maximum 17,0 C 100 % 1025,0 hPa 23,0 l/m 33,4 km/h
S
- 3,75 h 1,3 UV-I 452 W/m 53,1 km/h
S-SW
Durchschnitt 7,5 C 89 % 1006,5 hPa #139,2 l/m 10,1 km/h S #20:15 h 0,6 UV-I 65 W/m 18,1 km/h

Durchschnitt Minimum Temp.5,3 C
Durchschnitt Maximum Temp.9,7 C